Time;durP1;ratioP1;P1;durP2;ratioP2;P2;SDS_P1;SDS_P2;PMS_P1;PMS_P2;Temp;Humidity;BMP_temperature;BMP_pressure;BME280_temperature;BME280_humidity;BME280_pressure;Samples;Min_cycle;Max_cycle;Signal;HPM_P1;HPM_P2
2020/12/03 00:05:33;;;;;;;66.33;27.80;;;;;;;-4.29;100.00;99275.14;4374907;80;43741;-81
2020/12/03 00:11:40;;;;;;;75.45;28.23;;;;;;;-4.16;100.00;99266.22;4343786;80;44092;-82
2020/12/03 00:17:43;;;;;;;64.07;26.52;;;;;;;-4.13;100.00;99264.17;4372238;79;43244;-80
2020/12/03 00:23:45;;;;;;;65.52;25.08;;;;;;;-4.13;100.00;99258.07;4342667;81;43782;-81
2020/12/03 00:29:47;;;;;;;66.10;25.85;;;;;;;-4.20;100.00;99246.80;4367222;81;42912;-81
2020/12/03 00:35:50;;;;;;;68.28;24.10;;;;;;;-4.13;100.00;99244.94;4362840;81;43769;-81
2020/12/03 00:41:55;;;;;;;75.50;27.50;;;;;;;-4.28;100.00;99234.80;4365412;80;44123;-82
2020/12/03 00:47:57;;;;;;;64.27;24.27;;;;;;;-4.32;100.00;99233.41;4361130;81;43761;-82
2020/12/03 00:53:59;;;;;;;69.97;27.22;;;;;;;-4.37;100.00;99231.17;4476566;78;44089;-82
2020/12/03 01:00:07;;;;;;;72.92;26.50;;;;;;;-4.32;100.00;99235.19;4500618;78;43946;-82
2020/12/03 01:06:09;;;;;;;67.10;23.50;;;;;;;-4.28;100.00;99220.36;4501010;78;43804;-82
2020/12/03 01:12:13;;;;;;;66.15;24.67;;;;;;;-4.15;100.00;99212.73;4496922;77;43731;-83
2020/12/03 01:18:15;;;;;;;74.55;26.85;;;;;;;-4.30;100.00;99207.00;4516138;77;43066;-82
2020/12/03 01:24:19;;;;;;;77.10;26.17;;;;;;;-4.26;100.00;99196.61;4442273;78;43190;-81
2020/12/03 01:30:23;;;;;;;76.42;26.87;;;;;;;-4.28;100.00;99191.47;4530576;77;43990;-83
2020/12/03 01:36:25;;;;;;;81.08;28.20;;;;;;;-4.42;100.00;99191.84;4519852;77;43760;-82
2020/12/03 01:42:27;;;;;;;69.40;26.20;;;;;;;-4.28;100.00;99167.00;4524907;77;43769;-80
2020/12/03 01:48:49;;;;;;;69.25;24.80;;;;;;;-4.24;100.00;99151.35;4527259;77;43784;-81
2020/12/03 01:54:52;;;;;;;61.30;22.45;;;;;;;-4.31;100.00;99156.77;4527976;77;44424;-81
2020/12/03 02:00:54;;;;;;;76.75;27.00;;;;;;;-4.38;100.00;99136.28;4505720;77;43840;-81
2020/12/03 02:07:01;;;;;;;75.03;28.25;;;;;;;-4.32;100.00;99138.89;4519780;77;44074;-80
2020/12/03 02:13:03;;;;;;;85.65;28.20;;;;;;;-4.47;100.00;99137.11;4528064;78;43067;-80
2020/12/03 02:19:25;;;;;;;85.38;29.92;;;;;;;-4.53;100.00;99137.16;4491061;78;43056;-81
2020/12/03 02:25:31;;;;;;;74.10;24.57;;;;;;;-4.63;100.00;99120.03;4455619;79;44422;-82
2020/12/03 02:31:32;;;;;;;86.37;30.23;;;;;;;-4.77;100.00;99102.84;4454174;79;43089;-81
2020/12/03 02:37:35;;;;;;;82.80;28.38;;;;;;;-4.83;100.00;99106.00;4451071;79;43320;-81
2020/12/03 02:43:37;;;;;;;85.97;28.77;;;;;;;-4.75;100.00;99100.09;4418960;78;43208;-81
2020/12/03 02:49:42;;;;;;;87.22;29.05;;;;;;;-4.79;100.00;99088.19;4437275;78;43432;-81
2020/12/03 02:55:45;;;;;;;82.35;30.02;;;;;;;-4.91;100.00;99076.47;4446561;78;28603;-81
2020/12/03 03:01:47;;;;;;;79.50;27.65;;;;;;;-5.19;100.00;99080.59;4424392;78;43752;-80
2020/12/03 03:07:50;;;;;;;80.57;26.33;;;;;;;-5.07;100.00;99095.80;4433329;78;43223;-80
2020/12/03 03:13:52;;;;;;;75.42;26.62;;;;;;;-5.19;100.00;99108.13;4441875;78;43582;-80
2020/12/03 03:19:54;;;;;;;79.25;26.15;;;;;;;-4.95;100.00;99112.27;4505974;78;43607;-81
2020/12/03 03:25:56;;;;;;;80.35;27.02;;;;;;;-5.01;100.00;99107.05;4510013;77;43726;-79
2020/12/03 03:31:58;;;;;;;73.30;26.48;;;;;;;-4.77;100.00;99102.84;4513415;77;43887;-81
2020/12/03 03:38:00;;;;;;;71.25;25.02;;;;;;;-4.72;100.00;99098.52;4511237;77;44317;-83
2020/12/03 03:44:02;;;;;;;73.28;25.82;;;;;;;-4.70;100.00;99102.33;4517865;77;43575;-84
2020/12/03 03:50:06;;;;;;;77.35;26.52;;;;;;;-4.86;100.00;99085.76;4520524;77;43877;-83
2020/12/03 03:56:09;;;;;;;74.85;24.85;;;;;;;-4.94;100.00;99057.56;4518707;77;44459;-83
2020/12/03 04:02:13;;;;;;;;;;;;;;;-4.88;100.00;99061.45;4520650;77;28544;-80
2020/12/03 04:08:16;;;;;;;79.85;28.10;;;;;;;-5.18;100.00;99047.71;4506232;77;43749;-80
2020/12/03 04:14:18;;;;;;;82.15;28.02;;;;;;;-5.19;100.00;99034.25;4509052;77;43749;-80
2020/12/03 04:20:20;;;;;;;86.40;28.15;;;;;;;-5.14;100.00;99033.87;4498473;77;43229;-81
2020/12/03 04:26:23;;;;;;;84.35;28.92;;;;;;;-5.48;100.00;99027.51;4496264;78;43048;-82
2020/12/03 04:32:25;;;;;;;82.37;28.73;;;;;;;-5.48;100.00;99016.56;4495787;78;42969;-80
2020/12/03 04:38:27;;;;;;;74.20;27.15;;;;;;;-5.43;100.00;99005.70;4493151;78;44089;-80
2020/12/03 04:44:38;;;;;;;83.15;26.73;;;;;;;-5.36;100.00;99006.01;4498801;77;43573;-79
2020/12/03 04:51:02;;;;;;;78.80;28.17;;;;;;;-5.53;100.00;99003.50;4495775;78;43765;-79
2020/12/03 04:57:40;;;;;;;75.17;26.70;;;;;;;-5.40;100.00;99008.55;4502519;78;43979;-80
2020/12/03 05:04:02;;;;;;;70.62;26.30;;;;;;;-5.53;100.00;99003.50;4502239;78;43930;-80
2020/12/03 05:10:36;;;;;;;77.65;25.70;;;;;;;-5.58;100.00;99011.74;4482120;77;43457;-80
2020/12/03 05:17:11;;;;;;;82.15;26.50;;;;;;;-5.36;100.00;98987.66;4507660;78;43544;-80
2020/12/03 05:23:22;;;;;;;91.57;30.00;;;;;;;-5.50;100.00;98987.05;4521325;77;44092;-80
2020/12/03 05:29:24;;;;;;;71.62;22.70;;;;;;;-5.53;100.00;98978.11;4521184;77;44089;-81
2020/12/03 05:35:29;;;;;;;90.55;31.25;;;;;;;-5.65;100.00;98965.58;4523460;77;44114;-80
2020/12/03 05:41:42;;;;;;;81.78;28.57;;;;;;;-6.09;100.00;98940.00;4516963;77;43007;-81
2020/12/03 05:47:48;;;;;;;77.53;27.05;;;;;;;-5.88;100.00;98924.28;4491183;77;43666;-80
2020/12/03 05:53:57;;;;;;;79.87;28.92;;;;;;;-5.84;100.00;98937.95;4507374;77;43737;-80
2020/12/03 06:00:20;;;;;;;72.95;24.35;;;;;;;-5.92;100.00;98945.96;4525034;77;44478;-81
2020/12/03 06:06:57;;;;;;;70.52;25.45;;;;;;;-5.90;100.00;98950.59;4514690;77;44045;-81
2020/12/03 06:13:34;;;;;;;85.97;29.45;;;;;;;-6.00;100.00;98954.92;4501567;79;43103;-82
2020/12/03 06:19:55;;;;;;;96.45;31.23;;;;;;;-6.06;100.00;98939.28;4485392;79;44116;-80
2020/12/03 06:26:34;;;;;;;95.97;32.70;;;;;;;-6.27;100.00;98937.12;4388631;79;44164;-80
2020/12/03 06:32:54;;;;;;;82.30;27.45;;;;;;;-6.08;100.00;98943.00;4417458;79;43736;-80
2020/12/03 06:39:24;;;;;;;96.70;33.80;;;;;;;-5.98;100.00;98929.94;4383426;79;44135;-82
2020/12/03 06:45:53;;;;;;;90.92;30.88;;;;;;;-5.99;100.00;98914.69;4364888;81;44143;-82
2020/12/03 06:52:24;;;;;;;89.60;30.90;;;;;;;-5.94;100.00;98905.14;4376375;80;44151;-81
2020/12/03 06:58:55;;;;;;;94.20;32.85;;;;;;;-5.80;100.00;98900.91;4382566;79;44556;-85
2020/12/03 07:05:32;;;;;;;98.50;35.03;;;;;;;-5.73;100.00;98886.81;4392803;79;44124;-86
2020/12/03 07:12:09;;;;;;;89.30;32.65;;;;;;;-5.99;100.00;98849.73;4442110;79;44136;-84
2020/12/03 07:18:53;;;;;;;92.97;34.10;;;;;;;-5.85;100.00;98863.79;4433089;78;44116;-83
2020/12/03 07:24:57;;;;;;;92.82;33.08;;;;;;;-5.74;100.00;98879.91;4529465;77;44131;-86
2020/12/03 07:31:00;;;;;;;100.33;37.03;;;;;;;-5.51;100.00;98892.84;4527718;78;43445;-89
2020/12/03 07:37:23;;;;;;;97.95;34.90;;;;;;;-5.50;100.00;98884.86;4572834;77;44167;-89
2020/12/03 07:43:35;;;;;;;97.05;34.95;;;;;;;-5.34;100.00;98875.66;4502377;78;44410;-89
2020/12/03 07:49:48;;;;;;;90.90;32.60;;;;;;;-5.48;100.00;98882.93;4506383;77;44151;-89
2020/12/03 07:55:51;;;;;;;92.45;33.88;;;;;;;-5.48;100.00;98883.39;4386759;79;44091;-90
2020/12/03 08:01:57;;;;;;;88.52;32.13;;;;;;;-5.43;100.00;98876.45;4415843;80;44105;-90
2020/12/03 08:07:59;;;;;;;94.65;34.78;;;;;;;-5.40;100.00;98865.23;4375616;80;44158;-90
2020/12/03 08:14:03;;;;;;;86.15;31.80;;;;;;;-5.60;100.00;98871.70;4405285;81;43464;-90
2020/12/03 08:20:11;;;;;;;92.60;33.02;;;;;;;-5.38;100.00;98864.61;4378484;81;44112;-88
2020/12/03 08:26:13;;;;;;;94.25;34.75;;;;;;;-5.49;100.00;98858.16;4336046;80;44242;-89
2020/12/03 08:32:15;;;;;;;102.02;34.15;;;;;;;-5.39;100.00;98845.11;4347713;80;44278;-89
2020/12/03 08:38:32;;;;;;;93.82;33.60;;;;;;;-5.20;100.00;98845.63;4364749;81;44138;-91
2020/12/03 08:44:36;;;;;;;86.95;31.50;;;;;;;-5.18;100.00;98827.97;4399107;80;43252;-85
2020/12/03 08:50:38;;;;;;;78.30;31.12;;;;;;;-5.10;100.00;98829.44;4340973;81;42866;-84
2020/12/03 08:56:44;;;;;;;81.87;30.90;;;;;;;-4.95;100.00;98811.52;4354721;81;42949;-84
2020/12/03 09:02:46;;;;;;;;;;;;;;;-4.68;100.00;98820.52;4332343;81;28587;-86
2020/12/03 09:08:50;;;;;;;75.32;29.95;;;;;;;-4.48;100.00;98809.52;4348510;81;44077;-88
2020/12/03 09:14:57;;;;;;;79.32;30.20;;;;;;;-4.31;100.00;98802.38;4346781;80;43905;-87
2020/12/03 09:20:59;;;;;;;85.10;30.37;;;;;;;-4.00;100.00;98796.44;4360304;80;43059;-82
2020/12/03 09:27:06;;;;;;;77.72;30.02;;;;;;;-4.12;100.00;98776.55;4349659;80;43559;-77
2020/12/03 09:33:14;;;;;;;70.90;27.25;;;;;;;-3.83;100.00;98772.52;4342049;80;44171;-81
2020/12/03 09:39:18;;;;;;;61.15;24.55;;;;;;;-3.68;100.00;98779.91;4333153;80;43233;-84
2020/12/03 09:45:30;;;;;;;64.37;26.37;;;;;;;-3.46;100.00;98786.59;4362688;80;43248;-80
2020/12/03 09:51:32;;;;;;;68.90;27.13;;;;;;;-3.44;100.00;98781.16;4340095;80;43669;-81
2020/12/03 09:57:35;;;;;;;67.80;26.87;;;;;;;-3.15;100.00;98775.74;4331481;81;28588;-81
2020/12/03 10:04:25;;;;;;;70.52;27.58;;;;;;;-3.07;100.00;98769.73;4328732;80;44081;-81
2020/12/03 10:10:45;;;;;;;68.28;25.97;;;;;;;-2.87;100.00;98748.53;4328637;80;42917;-82
2020/12/03 10:16:51;;;;;;;57.73;23.75;;;;;;;-2.63;100.00;98747.91;4328962;81;44078;-82
2020/12/03 10:23:17;;;;;;;58.10;23.75;;;;;;;-2.33;100.00;98758.14;4384867;81;44105;-80
2020/12/03 10:29:46;;;;;;;70.00;26.57;;;;;;;-2.08;100.00;98728.82;4398967;79;43415;-81
2020/12/03 10:35:51;;;;;;;60.12;24.90;;;;;;;-2.11;100.00;98737.86;4385711;79;42779;-80
2020/12/03 10:41:54;;;;;;;60.23;25.37;;;;;;;-1.87;100.00;98723.16;4398507;79;28604;-79
2020/12/03 10:48:08;;;;;;;60.73;25.43;;;;;;;-1.80;100.00;98711.97;4387258;79;42888;-79
2020/12/03 10:54:18;;;;;;;60.98;25.72;;;;;;;-1.69;100.00;98724.86;4396125;79;42889;-80
2020/12/03 11:00:23;;;;;;;60.65;25.72;;;;;;;-1.85;100.00;98717.23;4409228;79;43117;-80
2020/12/03 11:06:32;;;;;;;64.12;26.37;;;;;;;-1.98;100.00;98699.22;4378343;80;43228;-79
2020/12/03 11:12:41;;;;;;;60.43;24.75;;;;;;;-2.11;100.00;98696.21;4390098;79;42535;-81
2020/12/03 11:18:49;;;;;;;;;;;;;;;-1.99;100.00;98700.69;4377442;79;28586;-80
2020/12/03 11:24:59;;;;;;;64.65;25.62;;;;;;;-1.94;100.00;98705.01;4323115;80;42885;-75
2020/12/03 11:31:06;;;;;;;64.77;27.85;;;;;;;-2.02;100.00;98698.38;4369360;80;43420;-78
2020/12/03 11:37:08;;;;;;;63.50;26.35;;;;;;;-1.73;100.00;98676.90;4288817;82;43235;-78
2020/12/03 11:49:25;;;;;;;59.27;24.98;;;;;;;-1.58;100.00;98661.80;4325709;80;44129;-80
2020/12/03 11:55:33;;;;;;;58.83;24.57;;;;;;;-1.39;100.00;98649.30;4354164;80;44132;-77
2020/12/03 12:01:39;;;;;;;56.70;23.85;;;;;;;-1.32;100.00;98639.73;4338604;81;44144;-75
2020/12/03 12:07:58;;;;;;;61.65;25.82;;;;;;;-1.28;100.00;98635.28;4336266;80;43066;-76
2020/12/03 12:13:58;;;;;;;56.08;24.57;;;;;;;-1.30;100.00;98640.38;4351898;80;44104;-75
2020/12/03 12:20:04;;;;;;;57.25;24.98;;;;;;;-1.08;100.00;98624.91;4336925;80;44151;-75
2020/12/03 12:26:04;;;;;;;59.98;24.95;;;;;;;-0.98;100.00;98622.92;4331321;81;44097;-76
2020/12/03 12:32:06;;;;;;;53.58;22.35;;;;;;;-1.02;100.00;98621.11;4322946;81;44097;-77
2020/12/03 12:38:08;;;;;;;65.28;25.45;;;;;;;-1.02;100.00;98606.59;4340170;81;42862;-75
2020/12/03 12:44:11;;;;;;;52.00;23.52;;;;;;;-0.95;100.00;98605.42;4315075;81;43733;-81
2020/12/03 12:50:14;;;;;;;55.33;25.12;;;;;;;-0.76;100.00;98583.10;4318619;81;43683;-81
2020/12/03 12:56:16;;;;;;;57.33;25.15;;;;;;;-0.90;100.00;98575.37;4325128;81;43708;-79
2020/12/03 13:02:18;;;;;;;55.23;24.40;;;;;;;-0.93;100.00;98574.91;4318258;80;44080;-79
2020/12/03 13:08:21;;;;;;;57.10;25.17;;;;;;;-0.94;100.00;98546.84;4321422;81;43217;-83
2020/12/03 13:14:26;;;;;;;51.42;24.43;;;;;;;-0.81;100.00;98532.64;4329303;81;44017;-83
2020/12/03 13:20:27;;;;;;;58.02;26.52;;;;;;;-0.72;100.00;98529.47;4335575;81;42866;-79
2020/12/03 13:26:29;;;;;;;66.35;29.05;;;;;;;-0.70;100.00;98520.88;4350835;80;43800;-80
2020/12/03 13:32:32;;;;;;;62.83;26.30;;;;;;;-0.68;100.00;98502.23;4349248;80;43269;-88
2020/12/03 13:38:36;;;;;;;55.63;24.60;;;;;;;-0.63;100.00;98507.33;4347815;80;44101;-80
2020/12/03 13:44:38;;;;;;;56.42;26.50;;;;;;;-0.69;100.00;98508.00;4345947;80;42881;-82
2020/12/03 13:50:41;;;;;;;65.03;27.85;;;;;;;-0.62;100.00;98497.60;4348919;80;43413;-79
2020/12/03 13:56:43;;;;;;;59.85;26.40;;;;;;;-0.63;100.00;98512.61;4350906;80;43233;-80
2020/12/03 14:02:45;;;;;;;64.58;29.42;;;;;;;-0.50;100.00;98491.42;4353505;80;43409;-81
2020/12/03 14:08:50;;;;;;;71.35;29.98;;;;;;;-0.54;100.00;98493.58;4348268;80;44096;-83
2020/12/03 14:14:54;;;;;;;67.30;30.23;;;;;;;-0.44;100.00;98484.13;4347755;80;44119;-80
2020/12/03 14:20:56;;;;;;;65.08;29.00;;;;;;;-0.56;100.00;98483.69;4352416;80;44080;-81
2020/12/03 14:26:59;;;;;;;61.18;27.65;;;;;;;-0.60;100.00;98474.48;4348093;80;43717;-83
2020/12/03 14:33:01;;;;;;;61.95;27.98;;;;;;;-0.65;100.00;98467.56;4355791;80;43410;-79
2020/12/03 14:39:04;;;;;;;62.67;29.37;;;;;;;-0.82;100.00;98445.70;4357221;80;43411;-80
2020/12/03 14:45:13;;;;;;;74.03;32.80;;;;;;;-0.96;100.00;98432.72;4349081;80;44100;-82
2020/12/03 14:51:17;;;;;;;68.70;29.57;;;;;;;-1.12;100.00;98407.55;4362052;80;44159;-81
2020/12/03 14:57:22;;;;;;;72.47;30.80;;;;;;;-1.14;100.00;98410.05;4352460;80;28600;-79
2020/12/03 15:03:24;;;;;;;61.60;28.30;;;;;;;-1.22;100.00;98425.39;4351225;80;43511;-80
2020/12/03 15:09:26;;;;;;;64.87;29.98;;;;;;;-1.13;100.00;98427.02;4362704;80;44085;-81
2020/12/03 15:15:32;;;;;;;70.08;30.23;;;;;;;-1.13;100.00;98411.19;4328646;80;28603;-82
2020/12/03 15:21:34;;;;;;;66.20;28.40;;;;;;;-1.06;100.00;98408.68;4351980;80;43813;-81
2020/12/03 15:27:53;;;;;;;;;;;;;;;;;;;;;
2020/12/03 15:33:57;;;;;;;67.72;28.85;;;;;;;-1.13;100.00;98401.95;4429406;78;161255;-83
2020/12/03 15:40:03;;;;;;;71.12;32.00;;;;;;;-1.17;100.00;98412.53;4360705;80;44116;-82
2020/12/03 15:46:11;;;;;;;72.53;31.57;;;;;;;-1.19;100.00;98382.86;4333781;80;28542;-83
2020/12/03 15:52:18;;;;;;;62.13;28.50;;;;;;;-1.07;100.00;98388.56;4327653;80;43428;-87
2020/12/03 15:58:29;;;;;;;65.22;27.82;;;;;;;-0.97;100.00;98392.33;4361726;81;43400;-81
2020/12/03 16:04:41;;;;;;;65.28;28.32;;;;;;;-0.85;100.00;98391.42;4242438;82;43446;-81
2020/12/03 16:10:48;;;;;;;70.42;30.32;;;;;;;-1.01;100.00;98377.81;4234240;82;44105;-82
2020/12/03 16:17:08;;;;;;;64.05;29.37;;;;;;;-1.09;100.00;98374.73;4208992;83;43412;-79
2020/12/03 16:23:35;;;;;;;67.20;29.15;;;;;;;-0.94;100.00;98376.14;4166043;83;44120;-79
2020/12/03 16:29:44;;;;;;;65.28;28.85;;;;;;;-0.99;100.00;98366.11;4162709;83;43445;-81
2020/12/03 16:35:53;;;;;;;61.42;28.45;;;;;;;-0.87;100.00;98374.46;4196201;83;43446;-81
2020/12/03 16:41:55;;;;;;;74.82;32.50;;;;;;;-1.00;100.00;98361.83;4241156;82;44040;-83
2020/12/03 16:47:58;;;;;;;68.20;30.32;;;;;;;-1.02;100.00;98345.83;4251933;82;44419;-81
2020/12/03 16:54:00;;;;;;;70.35;30.02;;;;;;;-0.94;100.00;98336.56;4254707;82;44099;-80
2020/12/03 17:00:05;;;;;;;60.52;28.85;;;;;;;-0.90;100.00;98337.03;4250480;82;43043;-81
2020/12/03 17:06:08;;;;;;;67.07;30.10;;;;;;;-0.87;100.00;98346.75;4251648;82;28582;-82
2020/12/03 17:12:11;;;;;;;60.70;27.82;;;;;;;-1.04;100.00;98361.86;4252752;82;43444;-82
2020/12/03 17:18:27;;;;;;;66.00;27.82;;;;;;;-1.10;100.00;98346.70;4229793;82;43418;-84
2020/12/03 17:24:34;;;;;;;60.85;28.85;;;;;;;-1.03;100.00;98334.95;4239296;82;43433;-82
2020/12/03 17:30:42;;;;;;;62.70;29.18;;;;;;;-1.03;100.00;98317.80;4254061;82;43417;-82
2020/12/03 17:36:50;;;;;;;68.15;30.62;;;;;;;-0.77;100.00;98322.75;4201652;84;28558;-82
2020/12/03 17:43:05;;;;;;;76.07;33.60;;;;;;;-0.80;100.00;98301.16;4128189;84;44152;-82
2020/12/03 17:49:11;;;;;;;66.05;29.98;;;;;;;-0.68;100.00;98294.47;4163050;84;43441;-86
2020/12/03 17:55:14;;;;;;;59.45;28.45;;;;;;;-0.52;100.00;98295.35;4183849;84;43051;-85
2020/12/03 18:01:21;;;;;;;67.58;29.87;;;;;;;-0.52;100.00;98289.59;4279543;82;28596;-81
2020/12/03 18:07:26;;;;;;;60.75;27.67;;;;;;;-0.43;100.00;98287.17;4233155;82;43262;-84
2020/12/03 18:13:32;;;;;;;68.30;31.05;;;;;;;-0.29;100.00;98265.75;4191013;84;44147;-80
2020/12/03 18:19:37;;;;;;;74.62;32.38;;;;;;;-0.30;100.00;98268.59;4175152;85;43444;-77
2020/12/03 18:25:46;;;;;;;66.22;30.37;;;;;;;-0.28;100.00;98252.05;4214923;83;44122;-79
2020/12/03 18:31:57;;;;;;;64.25;30.10;;;;;;;-0.23;100.00;98251.00;4247326;83;28580;-79
2020/12/03 18:38:01;;;;;;;70.25;31.65;;;;;;;-0.10;100.00;98260.14;4207351;83;44095;-79
2020/12/03 18:44:05;;;;;;;72.27;32.95;;;;;;;-0.02;100.00;98260.87;4217423;83;48556;-77
2020/12/03 18:50:08;;;;;;;76.40;34.08;;;;;;;-0.02;100.00;98265.32;4233556;82;28639;-76
2020/12/03 18:56:10;;;;;;;78.78;33.90;;;;;;;0.02;100.00;98264.46;4238352;82;43121;-76
2020/12/03 19:02:12;;;;;;;70.55;30.57;;;;;;;-0.01;100.00;98246.65;4226803;82;44107;-75
2020/12/03 19:08:17;;;;;;;63.78;31.12;;;;;;;0.10;100.00;98265.70;4238995;84;44415;-74
2020/12/03 19:14:18;;;;;;;71.57;33.45;;;;;;;0.03;100.00;98263.45;4225793;82;28554;-76
2020/12/03 19:20:23;;;;;;;68.62;30.62;;;;;;;0.03;100.00;98257.68;4241453;82;28557;-79
2020/12/03 19:26:25;;;;;;;67.60;31.27;;;;;;;-0.09;100.00;98243.28;4255032;82;28611;-78
2020/12/03 19:32:29;;;;;;;68.78;30.27;;;;;;;-0.15;100.00;98237.70;4244890;82;44119;-78
2020/12/03 19:44:41;;;;;;;76.85;32.45;;;;;;;0.04;100.00;98259.32;4585017;75;86425;-79
2020/12/03 19:50:43;;;;;;;69.42;31.07;;;;;;;-0.04;100.00;98264.69;4486377;78;44093;-79
2020/12/03 19:56:48;;;;;;;71.37;32.30;;;;;;;-0.07;100.00;98251.33;4488689;78;28611;-79
2020/12/03 20:02:56;;;;;;;70.57;31.40;;;;;;;-0.35;100.00;98251.95;4473608;78;44136;-80
2020/12/03 20:08:58;;;;;;;67.95;30.32;;;;;;;-0.32;100.00;98262.16;4488253;78;44094;-79
2020/12/03 20:15:01;;;;;;;59.08;28.27;;;;;;;-0.49;100.00;98257.53;4481524;78;43044;-79
2020/12/03 20:21:04;;;;;;;64.87;29.23;;;;;;;-0.61;100.00;98246.56;4450072;78;43832;-80
2020/12/03 20:27:06;;;;;;;67.90;30.75;;;;;;;-0.62;100.00;98244.12;4472289;78;44079;-79
2020/12/03 20:33:08;;;;;;;72.80;31.90;;;;;;;-0.81;100.00;98237.49;4486082;78;44093;-75
2020/12/03 20:39:13;;;;;;;66.92;29.63;;;;;;;-0.96;100.00;98210.56;4493242;78;44090;-76
2020/12/03 20:45:16;;;;;;;62.43;28.57;;;;;;;-0.88;100.00;98197.80;4478549;78;28594;-77
2020/12/03 20:51:18;;;;;;;63.78;28.92;;;;;;;-1.01;100.00;98195.27;4478357;78;43401;-75
2020/12/03 20:57:21;;;;;;;66.02;30.02;;;;;;;-1.07;100.00;98197.28;4489169;78;44132;-76
2020/12/03 21:03:23;;;;;;;66.33;29.07;;;;;;;-1.17;100.00;98190.93;4504517;78;44414;-76
2020/12/03 21:09:25;;;;;;;62.00;27.87;;;;;;;-1.17;100.00;98189.61;4500731;78;43439;-75
2020/12/03 21:15:27;;;;;;;69.15;31.80;;;;;;;-1.16;100.00;98186.46;4489528;78;44145;-77
2020/12/03 21:21:30;;;;;;;68.52;29.60;;;;;;;-1.08;100.00;98193.00;4499654;78;44105;-77
2020/12/03 21:27:32;;;;;;;63.08;28.92;;;;;;;-1.01;100.00;98171.52;4491618;78;43384;-75
2020/12/03 21:33:34;;;;;;;66.33;28.20;;;;;;;-1.03;100.00;98176.64;4494491;78;44097;-75
2020/12/03 21:39:36;;;;;;;70.65;29.85;;;;;;;-1.09;100.00;98178.66;4497934;77;44108;-79
2020/12/03 21:45:38;;;;;;;65.17;27.98;;;;;;;-1.03;100.00;98163.45;4495481;78;43376;-82
2020/12/03 21:51:40;;;;;;;72.67;30.08;;;;;;;-0.93;100.00;98152.14;4463738;78;44093;-82
2020/12/03 21:57:42;;;;;;;59.30;25.75;;;;;;;-1.24;100.00;98150.42;4500402;78;41688;-83
2020/12/03 22:03:44;;;;;;;62.23;28.25;;;;;;;-1.06;100.00;98142.19;4486781;78;43526;-83
2020/12/03 22:09:46;;;;;;;69.45;28.40;;;;;;;-1.06;100.00;98142.70;4472018;78;44077;-85
2020/12/03 22:15:48;;;;;;;64.80;28.67;;;;;;;-1.23;100.00;98146.78;4479798;78;43415;-83
2020/12/03 22:21:50;;;;;;;69.80;29.37;;;;;;;-1.47;100.00;98146.45;4501555;78;44153;-84
2020/12/03 22:27:52;;;;;;;65.62;29.12;;;;;;;-1.37;100.00;98136.50;4478344;78;43464;-78
2020/12/03 22:33:55;;;;;;;67.75;28.65;;;;;;;-1.24;100.00;98124.56;4454885;78;44109;-80
2020/12/03 22:39:57;;;;;;;59.98;26.27;;;;;;;-1.16;100.00;98119.19;4476439;78;42816;-79
2020/12/03 22:45:59;;;;;;;67.08;27.82;;;;;;;-1.06;100.00;98131.63;4460888;78;44078;-79
2020/12/03 22:52:02;;;;;;;59.73;27.00;;;;;;;-1.43;100.00;98135.39;4479419;78;43064;-85
2020/12/03 22:58:04;;;;;;;59.65;26.80;;;;;;;-1.32;100.00;98096.41;4470583;78;42871;-82
2020/12/03 23:04:07;;;;;;;61.63;27.07;;;;;;;-1.78;100.00;98071.72;4475024;78;43211;-82
2020/12/03 23:10:09;;;;;;;57.58;24.92;;;;;;;-1.61;100.00;98071.61;4475948;78;43641;-83
2020/12/03 23:16:12;;;;;;;74.10;30.25;;;;;;;-1.42;100.00;98063.70;4478219;78;44074;-82
2020/12/03 23:22:14;;;;;;;70.20;29.98;;;;;;;-1.29;100.00;98084.21;4482376;77;44073;-81
2020/12/03 23:28:16;;;;;;;58.48;25.77;;;;;;;-1.23;100.00;98072.13;4472565;78;43308;-82
2020/12/03 23:34:19;;;;;;;63.75;27.85;;;;;;;-1.26;100.00;98053.00;4477546;78;43400;-82
2020/12/03 23:40:22;;;;;;;63.65;28.23;;;;;;;-1.50;100.00;98026.86;4477158;78;43403;-82
2020/12/03 23:46:25;;;;;;;72.97;31.10;;;;;;;-1.48;100.00;98020.42;4501310;78;44132;-80
2020/12/03 23:52:27;;;;;;;66.67;27.60;;;;;;;-1.35;100.00;98023.77;4510443;78;43434;-80
2020/12/03 23:58:29;;;;;;;63.42;27.07;;;;;;;-1.28;100.00;98037.86;4490363;78;43434;-80
